Stations météo

réclame
Mon MeteoGroup
Gravesend, Grande-Bretagne (3784): Température de l'air & dewpoint: 10.12.2017 03:00:00 - 16.12.2017 03:00:00 (GMT)Gravesend, Grande-Bretagne (3784): Vitesse du vent & gusts: 10.12.2017 03:00:00 - 16.12.2017 03:00:00 (GMT)Gravesend, Grande-Bretagne (3784): Direction du vent: 10.12.2017 03:00:00 - 16.12.2017 03:00:00 (GMT)Gravesend, Grande-Bretagne (3784): reduced air pressure: 10.12.2017 03:00:00 - 16.12.2017 03:00:00 (GMT)
Date & Time tt [°C] td [°C] ff [km/h] ff [knt] fx [km/h] fx [knt] dd ppp [hPa]
16.12.2017 03:00:00 2,2 -0,3 21 11 - - W 1012,7
16.12.2017 02:00:00 2,4 0,1 21 11 - - WNW 1011,9
16.12.2017 01:00:00 2,8 0,3 16 9 - - WNW 1011,0
16.12.2017 00:00:00 3,0 0,7 18 10 - - WNW 1010,3
15.12.2017 23:00:00 3,3 1,1 15 8 - - WNW 1009,6
15.12.2017 22:00:00 3,9 1,7 15 8 - - WNW 1008,8
15.12.2017 21:00:00 4,7 2,3 24 13 - - NW 1007,7
15.12.2017 20:00:00 5,0 2,8 18 10 - - NW 1006,6
15.12.2017 19:00:00 5,0 3,1 16 9 - - NW 1005,3
15.12.2017 18:00:00 5,4 2,6 21 11 - - NW 1004,1
15.12.2017 17:00:00 5,5 2,3 15 8 - - NW 1003,0
15.12.2017 16:00:00 5,7 2,3 22 12 - - WNW 1001,7
15.12.2017 15:00:00 5,7 2,3 18 10 - - WNW 1000,2
15.12.2017 14:00:00 5,3 2,2 22 12 - - WNW 999,1
15.12.2017 13:00:00 5,1 1,8 26 14 - - NW 998,0
15.12.2017 12:00:00 4,2 1,8 18 10 - - WNW 997,2
15.12.2017 11:00:00 3,7 1,5 18 10 - - WNW 996,3
15.12.2017 10:00:00 3,4 2,0 16 9 - - WNW 995,3
15.12.2017 09:00:00 2,9 1,9 13 7 - - WNW 994,2
15.12.2017 08:00:00 2,3 1,3 9 5 - - NNW 992,8
15.12.2017 07:00:00 4,6 2,6 13 7 - - W 991,3
15.12.2017 06:00:00 4,3 1,9 16 9 - - SW 990,5
15.12.2017 05:00:00 4,0 1,7 18 10 - - WSW 990,3
15.12.2017 04:00:00 3,7 1,7 21 11 - - WSW 990,2
15.12.2017 03:00:00 3,0 1,1 15 8 - - WSW 989,9
15.12.2017 02:00:00 3,0 1,7 21 11 - - WSW 989,8
15.12.2017 01:00:00 2,9 1,7 16 9 - - WSW 989,6
15.12.2017 00:00:00 3,4 1,8 21 11 - - WSW 989,4
14.12.2017 23:00:00 3,5 2,1 15 8 - - W 988,8
14.12.2017 22:00:00 2,8 1,6 13 7 - - WSW 988,6
14.12.2017 21:00:00 1,7 -0,1 8 4 - - SSW 988,6
14.12.2017 20:00:00 2,2 -0,2 8 4 - - SSW 988,7
14.12.2017 19:00:00 2,3 0,2 11 6 - - SW 988,4
14.12.2017 18:00:00 3,2 0,9 13 7 - - SW 988,3
14.12.2017 17:00:00 4,1 0,9 15 8 - - SW 988,6
14.12.2017 16:00:00 5,2 1,0 22 12 - - WSW 989,0
14.12.2017 15:00:00 5,7 1,3 18 10 - - WSW 989,3
14.12.2017 14:00:00 6,3 1,5 26 14 - - WSW 989,7
14.12.2017 13:00:00 5,9 1,4 22 12 - - WSW 990,8
14.12.2017 12:00:00 5,7 1,7 28 15 - - WSW 991,6
14.12.2017 11:00:00 5,6 1,8 28 15 - - WSW 992,0
14.12.2017 10:00:00 4,9 1,4 26 14 - - WSW 992,5
14.12.2017 09:00:00 4,8 1,5 24 13 - - SW 992,4
14.12.2017 08:00:00 4,4 1,1 24 13 - - SW 992,6
14.12.2017 07:00:00 4,7 1,4 28 15 46 25 WSW 992,7
14.12.2017 06:00:00 5,0 1,3 34 18 48 26 WSW 992,5
14.12.2017 05:00:00 5,0 1,6 29 16 52 28 WSW 992,4
14.12.2017 04:00:00 4,8 1,2 28 15 48 26 WSW 992,7
14.12.2017 03:00:00 4,5 0,9 35 19 52 28 WSW 992,9
14.12.2017 02:00:00 3,8 0,7 28 15 57 31 WSW 992,8
14.12.2017 01:00:00 4,2 0,8 37 20 54 29 WSW 991,9
14.12.2017 00:00:00 4,8 1,3 39 21 67 36 W 990,9
13.12.2017 23:00:00 4,4 2,4 42 23 59 32 WSW 989,7
13.12.2017 22:00:00 4,2 2,8 18 10 - - SW 988,9
13.12.2017 21:00:00 5,5 1,3 21 11 - - SW 989,7
13.12.2017 20:00:00 4,7 2,1 18 10 - - SW 990,9
13.12.2017 19:00:00 4,8 1,9 21 11 - - WSW 991,1
13.12.2017 18:00:00 5,9 1,9 24 13 52 28 W 991,3
13.12.2017 17:00:00 7,1 3,2 35 19 63 34 W 990,7
13.12.2017 16:00:00 9,0 7,0 26 14 - - SW 990,1
13.12.2017 15:00:00 9,5 7,2 22 12 - - SSW 990,9
13.12.2017 14:00:00 9,0 7,4 15 8 - - SSW 992,8
13.12.2017 13:00:00 8,2 6,7 21 11 - - SSW 994,8
13.12.2017 12:00:00 7,9 6,3 15 8 - - SSW 996,6
13.12.2017 11:00:00 7,3 5,7 16 9 - - SSW 998,5
13.12.2017 10:00:00 6,9 5,3 16 9 - - SW 999,4
13.12.2017 09:00:00 6,4 4,6 13 7 - - SW 1000,0
13.12.2017 08:00:00 6,0 4,5 15 8 - - WSW 1000,5
13.12.2017 07:00:00 6,7 4,9 18 10 - - W 1000,4
13.12.2017 06:00:00 7,9 6,0 28 15 - - W 1000,0
13.12.2017 05:00:00 8,2 7,1 11 6 - - SW 999,8
13.12.2017 04:00:00 8,1 7,4 18 10 - - SSW 1000,4
13.12.2017 03:00:00 7,7 6,7 31 17 - - S 1001,0
13.12.2017 02:00:00 7,4 6,5 28 15 - - S 1002,3
13.12.2017 01:00:00 6,6 5,8 16 9 - - S 1003,9
13.12.2017 00:00:00 5,9 4,7 13 7 - - S 1005,3
12.12.2017 23:00:00 5,8 4,1 16 9 - - S 1006,4
12.12.2017 22:00:00 5,8 3,4 18 10 - - S 1007,2
12.12.2017 21:00:00 5,2 2,6 15 8 - - S 1008,4
12.12.2017 20:00:00 3,8 1,6 13 7 - - S 1008,9
12.12.2017 19:00:00 3,2 0,4 13 7 - - S 1009,4
12.12.2017 18:00:00 2,5 0,0 15 8 - - S 1009,8
12.12.2017 17:00:00 2,1 -0,3 13 7 - - S 1010,1
12.12.2017 16:00:00 1,5 -0,8 8 4 - - SSW 1010,2
12.12.2017 15:00:00 3,7 -0,1 11 6 - - SSW 1010,0
12.12.2017 14:00:00 4,5 0,3 13 7 - - WSW 1009,8
12.12.2017 13:00:00 4,0 -0,1 11 6 - - SW 1009,5
12.12.2017 12:00:00 3,0 -0,3 11 6 - - WSW 1009,5
12.12.2017 11:00:00 1,5 -1,1 16 9 - - WSW 1009,3
12.12.2017 10:00:00 0,2 -1,9 13 7 - - SW 1009,0
12.12.2017 09:00:00 -0,8 -2,1 15 8 - - WSW 1008,7
12.12.2017 08:00:00 -1,4 -2,6 9 5 - - SW 1007,1
12.12.2017 07:00:00 -2,0 -3,3 9 5 - - SW 1005,9
12.12.2017 06:00:00 -1,0 -2,3 15 8 - - WSW 1005,3
12.12.2017 05:00:00 -0,6 -2,2 18 10 - - WSW 1004,2
12.12.2017 04:00:00 -0,4 -1,9 22 12 - - WSW 1003,4
12.12.2017 03:00:00 -0,1 -2,0 16 9 - - W 1001,8
12.12.2017 02:00:00 -0,1 -2,1 18 10 - - W 1000,5
12.12.2017 01:00:00 0,1 -2,2 18 10 - - W 999,3
12.12.2017 00:00:00 0,6 -2,0 22 12 - - W 998,1
11.12.2017 23:00:00 1,0 -2,0 21 11 - - W 996,9
11.12.2017 22:00:00 1,1 -1,9 18 10 - - W 995,8
11.12.2017 21:00:00 1,4 -1,4 21 11 - - W 994,2
11.12.2017 20:00:00 1,8 -0,6 21 11 - - WNW 992,4
11.12.2017 19:00:00 2,0 0,0 21 11 - - NW 990,8
11.12.2017 18:00:00 2,2 -0,1 22 12 - - NW 989,1
11.12.2017 17:00:00 2,6 0,7 21 11 - - NW 987,3
11.12.2017 16:00:00 2,6 1,9 9 5 - - NW 985,6
11.12.2017 15:00:00 1,9 1,2 22 12 - - N 984,4
11.12.2017 14:00:00 2,0 1,3 24 13 - - N 982,9
11.12.2017 13:00:00 1,8 1,2 26 14 - - N 981,9
11.12.2017 12:00:00 1,3 0,8 21 11 - - N 981,1
11.12.2017 11:00:00 1,9 1,1 22 12 - - N 980,6
11.12.2017 10:00:00 2,4 1,7 29 16 - - NNE 979,7
11.12.2017 09:00:00 2,5 1,8 29 16 48 26 NNE 979,4
11.12.2017 08:00:00 3,1 2,2 28 15 50 27 NNE 978,7
11.12.2017 07:00:00 3,3 2,5 26 14 - - NNE 978,3
11.12.2017 06:00:00 3,0 2,2 24 13 - - NNE 978,3
11.12.2017 05:00:00 2,4 2,2 21 11 - - NNE 978,0
11.12.2017 04:00:00 1,3 1,1 18 10 - - N 979,1
11.12.2017 03:00:00 1,0 0,8 13 7 - - N 981,1
11.12.2017 02:00:00 0,9 0,6 13 7 - - NE 981,6
11.12.2017 01:00:00 1,1 0,8 8 4 - - NE 981,2
11.12.2017 00:00:00 1,1 0,7 5 3 - - ENE 981,8
10.12.2017 23:00:00 1,0 0,4 5 3 - - NE 981,1
10.12.2017 22:00:00 1,3 0,6 9 5 - - N 980,8
10.12.2017 21:00:00 1,8 0,8 5 3 - - NW 980,9
10.12.2017 20:00:00 2,1 1,0 9 5 - - W 980,0
10.12.2017 19:00:00 2,0 1,0 16 9 - - W 979,7
10.12.2017 18:00:00 2,1 1,4 15 8 - - W 978,9
10.12.2017 17:00:00 1,7 1,1 16 9 - - W 977,9
10.12.2017 16:00:00 1,4 1,0 18 10 - - W 977,1
10.12.2017 15:00:00 0,9 0,7 22 12 - - W 975,5
10.12.2017 14:00:00 0,7 0,4 18 10 - - W 973,9
10.12.2017 13:00:00 1,0 0,5 5 3 - - NNW 971,8
10.12.2017 12:00:00 1,2 0,8 8 4 - - NNE 971,6
10.12.2017 11:00:00 1,1 0,7 5 3 - - NNW 972,6
10.12.2017 10:00:00 1,2 0,9 15 8 - - NE 972,8
10.12.2017 09:00:00 0,5 0,1 22 12 - - ENE 974,3
10.12.2017 08:00:00 1,3 0,6 26 14 - - E 977,6
10.12.2017 07:00:00 2,9 1,8 22 12 - - ESE 982,1
10.12.2017 06:00:00 3,6 3,1 18 10 - - E 985,5
10.12.2017 05:00:00 2,6 1,7 16 9 - - E 989,6
10.12.2017 04:00:00 2,4 -1,0 11 6 - - E 992,9
10.12.2017 03:00:00 2,4 -2,4 11 6 - - ESE 996,1

tt = Température de l'air
td = dewpoint
ff = Vitesse du vent
fx = gusts
dd = Direction du vent
ppp = reduced air pressure

stations d'obs. à proximité